Time;durP1;ratioP1;P1;durP2;ratioP2;P2;SDS_P1;SDS_P2;PMS_P1;PMS_P2;Temp;Humidity;BMP_temperature;BMP_pressure;BME280_temperature;BME280_humidity;BME280_pressure;Samples;Min_cycle;Max_cycle;Signal;HPM_P1;HPM_P2
2023/09/13 00:01:10;;;;;;;6.60;2.75;;;;;;;;;;6195806;23;20103;-86
2023/09/13 00:03:48;;;;;;;4.43;2.00;;;;;;;;;;6196819;23;20095;-86
2023/09/13 00:06:17;;;;;;;5.68;1.88;;;;;;;;;;6195943;23;20442;-86
2023/09/13 00:08:43;;;;;;;6.05;2.10;;;;;;;;;;6196119;23;20078;-87
2023/09/13 00:11:18;;;;;;;8.10;2.42;;;;;;;;;;6195260;23;20013;-86
2023/09/13 00:13:55;;;;;;;7.30;3.05;;;;;;;;;;6196703;23;20091;-86
2023/09/13 00:16:31;;;;;;;5.32;1.80;;;;;;;;;;6196349;23;20012;-86
2023/09/13 00:19:14;;;;;;;4.53;2.00;;;;;;;;;;6196099;23;20531;-86
2023/09/13 00:22:10;;;;;;;4.57;1.85;;;;;;;;;;6195268;23;20016;-86
2023/09/13 00:24:46;;;;;;;4.00;1.98;;;;;;;;;;6219643;23;20074;-86
2023/09/13 00:27:35;;;;;;;5.68;2.10;;;;;;;;;;6195807;23;20019;-86
2023/09/13 00:30:17;;;;;;;3.03;1.98;;;;;;;;;;6187314;23;20016;-86
2023/09/13 00:32:46;;;;;;;3.85;2.00;;;;;;;;;;6196918;23;20316;-86
2023/09/13 00:35:21;;;;;;;5.13;2.00;;;;;;;;;;6194562;23;20023;-86
2023/09/13 00:38:15;;;;;;;4.28;1.85;;;;;;;;;;6196521;23;20438;-86
2023/09/13 00:41:11;;;;;;;4.20;1.90;;;;;;;;;;6195055;23;20099;-86
2023/09/13 00:43:37;;;;;;;5.43;1.85;;;;;;;;;;6191315;23;20012;-86
2023/09/13 00:46:12;;;;;;;4.32;2.13;;;;;;;;;;6195004;23;20352;-88
2023/09/13 00:48:49;;;;;;;4.80;2.40;;;;;;;;;;6194408;23;20390;-88
2023/09/13 00:51:26;;;;;;;4.30;1.90;;;;;;;;;;6194207;23;20077;-88
2023/09/13 00:53:55;;;;;;;4.68;2.22;;;;;;;;;;6194028;23;20463;-88
2023/09/13 00:59:18;;;;;;;5.65;2.20;;;;;;;;;;6176894;23;20030;-89
2023/09/13 01:02:24;;;;;;;;;;;;;;;;;;;;;
2023/09/13 01:05:01;;;;;;;6.28;2.47;;;;;;;;;;6216748;23;20028;-88
2023/09/13 01:07:34;;;;;;;4.93;1.98;;;;;;;;;;6194849;23;20013;-88
2023/09/13 01:10:08;;;;;;;4.53;2.28;;;;;;;;;;6193436;23;20060;-88
2023/09/13 01:12:46;;;;;;;5.28;2.05;;;;;;;;;;6193759;23;20042;-88
2023/09/13 01:15:20;;;;;;;6.32;2.10;;;;;;;;;;6193015;23;20023;-86
2023/09/13 01:18:19;;;;;;;5.53;2.20;;;;;;;;;;6190364;23;20028;-86
2023/09/13 01:20:58;;;;;;;5.18;2.10;;;;;;;;;;6193095;23;20020;-86
2023/09/13 01:23:41;;;;;;;4.82;2.33;;;;;;;;;;6194744;23;20012;-85
2023/09/13 01:26:29;;;;;;;3.83;2.10;;;;;;;;;;6195341;23;20016;-86
2023/09/13 01:29:27;;;;;;;6.65;2.30;;;;;;;;;;6194292;23;20047;-86
2023/09/13 01:36:28;;;;;;;5.57;1.83;;;;;;;;;;6152435;23;20585;-85
2023/09/13 01:39:02;;;;;;;3.72;1.88;;;;;;;;;;6128356;23;20094;-86
2023/09/13 01:42:05;;;;;;;;;;;;;;;;;;;;;
2023/09/13 01:44:50;;;;;;;;;;;;;;;;;;;;;
2023/09/13 01:47:32;;;;;;;4.88;2.40;;;;;;;;;;6127940;23;20405;-87
2023/09/13 01:50:09;;;;;;;5.22;2.08;;;;;;;;;;6143454;23;20095;-86
2023/09/13 01:52:35;;;;;;;5.10;2.05;;;;;;;;;;6194204;23;20016;-86
2023/09/13 01:55:33;;;;;;;6.47;2.25;;;;;;;;;;6194613;23;20046;-86
2023/09/13 01:58:08;;;;;;;2.95;1.75;;;;;;;;;;6191599;23;20020;-86
2023/09/13 02:01:01;;;;;;;8.75;2.50;;;;;;;;;;6194049;23;20065;-85
2023/09/13 02:03:30;;;;;;;5.85;2.45;;;;;;;;;;6195097;23;20027;-86
2023/09/13 02:06:40;;;;;;;6.13;2.08;;;;;;;;;;6193642;23;20156;-87
2023/09/13 02:09:24;;;;;;;8.60;2.75;;;;;;;;;;6196093;23;20154;-87
2023/09/13 02:11:53;;;;;;;5.43;2.70;;;;;;;;;;6195167;23;20158;-86
2023/09/13 02:14:19;;;;;;;8.05;3.10;;;;;;;;;;6195198;23;20064;-86
2023/09/13 02:16:51;;;;;;;9.20;3.10;;;;;;;;;;6194584;23;20051;-86
2023/09/13 02:19:25;;;;;;;9.13;3.20;;;;;;;;;;6194164;23;20016;-86
2023/09/13 02:25:12;;;;;;;10.30;3.00;;;;;;;;;;6220554;23;20020;-89
2023/09/13 02:27:38;;;;;;;6.00;2.90;;;;;;;;;;6197004;23;20383;-88
2023/09/13 02:30:04;;;;;;;7.72;2.75;;;;;;;;;;6197682;23;20012;-85
2023/09/13 02:32:31;;;;;;;7.95;3.10;;;;;;;;;;6198410;23;20111;-86
2023/09/13 02:34:57;;;;;;;7.80;2.60;;;;;;;;;;6197752;23;20023;-87
2023/09/13 02:37:23;;;;;;;8.13;2.95;;;;;;;;;;6196049;23;20016;-88
2023/09/13 02:39:49;;;;;;;7.90;2.63;;;;;;;;;;6195938;23;20020;-89
2023/09/13 02:42:40;;;;;;;9.30;2.95;;;;;;;;;;6196256;23;20027;-89
2023/09/13 02:45:12;;;;;;;7.72;2.58;;;;;;;;;;6196863;23;20087;-89
2023/09/13 02:47:47;;;;;;;4.30;2.08;;;;;;;;;;6196237;23;20039;-89
2023/09/13 02:50:15;;;;;;;6.15;2.33;;;;;;;;;;6196172;23;20012;-89
2023/09/13 02:53:13;;;;;;;7.15;2.72;;;;;;;;;;6196427;23;20020;-89
2023/09/13 02:56:05;;;;;;;7.68;2.30;;;;;;;;;;6194151;23;20028;-90
2023/09/13 02:58:35;;;;;;;8.15;2.42;;;;;;;;;;6196690;23;20051;-89
2023/09/13 03:01:03;;;;;;;18.80;3.30;;;;;;;;;;6196022;23;20020;-88
2023/09/13 03:03:30;;;;;;;12.52;2.95;;;;;;;;;;6221252;23;20055;-88
2023/09/13 03:06:05;;;;;;;5.82;2.70;;;;;;;;;;6249005;23;20091;-88
2023/09/13 03:08:31;;;;;;;5.57;2.90;;;;;;;;;;6196923;23;20085;-87
2023/09/13 03:10:57;;;;;;;10.50;3.13;;;;;;;;;;6196129;23;20012;-86
2023/09/13 03:13:23;;;;;;;7.00;2.28;;;;;;;;;;6196633;23;20440;-87
2023/09/13 03:15:49;;;;;;;12.23;3.80;;;;;;;;;;6196284;23;20020;-87
2023/09/13 03:18:15;;;;;;;8.38;2.63;;;;;;;;;;6247625;23;20091;-88
2023/09/13 03:20:44;;;;;;;10.57;3.42;;;;;;;;;;6195088;23;20082;-87
2023/09/13 03:23:20;;;;;;;10.00;2.88;;;;;;;;;;6195553;23;20073;-88
2023/09/13 03:25:49;;;;;;;9.40;3.10;;;;;;;;;;6196346;23;20016;-88
2023/09/13 03:28:26;;;;;;;7.88;2.97;;;;;;;;;;6195701;23;20019;-88
2023/09/13 03:30:52;;;;;;;9.43;2.70;;;;;;;;;;6220187;23;20495;-89
2023/09/13 03:33:19;;;;;;;8.65;2.80;;;;;;;;;;6195297;23;20016;-89
2023/09/13 03:36:03;;;;;;;10.30;2.78;;;;;;;;;;6195731;23;20016;-89
2023/09/13 03:38:29;;;;;;;17.70;3.60;;;;;;;;;;6196499;23;20099;-88
2023/09/13 03:40:55;;;;;;;10.02;2.97;;;;;;;;;;6195366;23;20027;-88
2023/09/13 03:43:27;;;;;;;6.32;2.70;;;;;;;;;;6195487;23;20024;-89
2023/09/13 03:45:53;;;;;;;7.90;3.33;;;;;;;;;;6195372;23;20344;-88
2023/09/13 03:48:22;;;;;;;11.95;3.15;;;;;;;;;;6195162;23;20024;-88
2023/09/13 05:36:26;;;;;;;13.30;3.47;;;;;;;;;;5090748;27;20642;-75
2023/09/13 05:38:52;;;;;;;8.43;4.22;;;;;;;;;;5069586;28;20037;-79
2023/09/13 05:41:18;;;;;;;9.95;3.60;;;;;;;;;;5062413;28;20049;-77
2023/09/13 05:43:45;;;;;;;10.57;3.70;;;;;;;;;;5085618;28;20048;-78
2023/09/13 05:46:11;;;;;;;8.68;3.10;;;;;;;;;;5074096;28;20037;-77
2023/09/13 05:48:37;;;;;;;5.97;3.08;;;;;;;;;;5068880;28;20056;-82
2023/09/13 05:51:04;;;;;;;9.05;2.83;;;;;;;;;;5079527;28;20043;-77
2023/09/13 05:53:31;;;;;;;7.93;3.75;;;;;;;;;;5089588;28;20151;-76
2023/09/13 05:55:57;;;;;;;7.78;3.30;;;;;;;;;;5082464;28;20063;-76
2023/09/13 05:58:23;;;;;;;7.90;3.25;;;;;;;;;;5085849;28;20091;-77
2023/09/13 06:00:50;;;;;;;7.47;3.15;;;;;;;;;;5073973;28;20049;-77
2023/09/13 06:03:19;;;;;;;8.57;3.50;;;;;;;;;;5077548;28;20044;-77
2023/09/13 06:05:49;;;;;;;10.68;3.20;;;;;;;;;;5089357;28;20094;-77
2023/09/13 06:08:15;;;;;;;8.73;3.30;;;;;;;;;;5085718;28;20082;-76
2023/09/13 06:10:41;;;;;;;11.52;3.17;;;;;;;;;;5079707;28;20076;-76
2023/09/13 06:13:07;;;;;;;5.97;2.55;;;;;;;;;;5105321;28;20037;-76
2023/09/13 06:15:33;;;;;;;7.18;2.40;;;;;;;;;;5074935;28;20548;-77
2023/09/13 06:18:00;;;;;;;7.75;2.90;;;;;;;;;;5053257;28;20494;-77
2023/09/13 06:20:26;;;;;;;6.90;2.80;;;;;;;;;;5059484;28;20391;-77
2023/09/13 06:22:52;;;;;;;7.95;2.53;;;;;;;;;;5084404;28;20169;-78
2023/09/13 06:25:19;;;;;;;7.82;2.70;;;;;;;;;;5089395;28;20040;-77
2023/09/13 06:27:45;;;;;;;9.95;2.30;;;;;;;;;;5070715;28;20074;-77
2023/09/13 06:30:13;;;;;;;7.43;2.40;;;;;;;;;;5068979;28;20041;-77
2023/09/13 06:32:39;;;;;;;9.77;2.85;;;;;;;;;;5085483;28;20558;-76
2023/09/13 06:35:05;;;;;;;6.75;2.53;;;;;;;;;;5074918;28;20563;-75
2023/09/13 06:37:31;;;;;;;5.78;2.30;;;;;;;;;;5086965;28;20051;-76
2023/09/13 06:39:57;;;;;;;5.30;1.90;;;;;;;;;;5089101;28;20055;-76
2023/09/13 06:42:23;;;;;;;6.35;2.30;;;;;;;;;;5070632;28;20068;-76
2023/09/13 06:44:49;;;;;;;5.38;2.15;;;;;;;;;;5078661;28;20079;-77
2023/09/13 06:47:15;;;;;;;7.55;2.50;;;;;;;;;;5073818;28;20037;-76
2023/09/13 06:49:41;;;;;;;6.10;2.45;;;;;;;;;;5052826;28;20048;-77
2023/09/13 06:52:08;;;;;;;8.65;2.22;;;;;;;;;;5045906;28;20072;-79
2023/09/13 06:54:34;;;;;;;6.93;2.33;;;;;;;;;;5067905;28;20405;-77
2023/09/13 06:57:00;;;;;;;10.30;2.65;;;;;;;;;;5057696;28;20041;-80
2023/09/13 06:59:26;;;;;;;6.30;2.53;;;;;;;;;;5053054;28;20147;-79
2023/09/13 07:01:52;;;;;;;6.43;2.85;;;;;;;;;;5056936;28;20057;-80
2023/09/13 07:04:18;;;;;;;8.02;3.22;;;;;;;;;;5055924;28;20083;-77
2023/09/13 07:06:44;;;;;;;9.88;3.35;;;;;;;;;;5060215;28;20371;-79
2023/09/13 07:09:10;;;;;;;7.63;2.95;;;;;;;;;;5061014;28;20099;-77
2023/09/13 07:11:38;;;;;;;10.45;2.83;;;;;;;;;;5057128;28;20056;-79
2023/09/13 07:14:04;;;;;;;13.60;3.28;;;;;;;;;;5055910;28;20064;-80
2023/09/13 07:16:30;;;;;;;11.45;3.53;;;;;;;;;;5067946;28;24442;-79
2023/09/13 07:18:56;;;;;;;8.40;3.33;;;;;;;;;;5065976;28;20135;-78
2023/09/13 07:21:22;;;;;;;12.88;3.50;;;;;;;;;;5043959;28;20513;-79
2023/09/13 07:23:48;;;;;;;12.00;3.53;;;;;;;;;;5059403;28;20072;-79
2023/09/13 07:26:14;;;;;;;8.40;3.30;;;;;;;;;;5072677;28;20095;-79
2023/09/13 07:28:40;;;;;;;10.02;3.47;;;;;;;;;;5071588;28;20116;-80
2023/09/13 07:31:10;;;;;;;11.18;3.30;;;;;;;;;;5060544;28;20047;-80
2023/09/13 07:33:36;;;;;;;10.45;3.63;;;;;;;;;;5058845;28;20041;-81
2023/09/13 07:36:03;;;;;;;13.73;4.15;;;;;;;;;;5044877;28;20073;-81
2023/09/13 07:38:29;;;;;;;9.52;3.60;;;;;;;;;;5058065;28;20102;-81
2023/09/13 07:40:55;;;;;;;8.77;3.13;;;;;;;;;;5057555;28;20103;-81
2023/09/13 07:43:21;;;;;;;13.43;3.58;;;;;;;;;;5056834;28;20079;-81
2023/09/13 07:45:47;;;;;;;10.95;3.45;;;;;;;;;;5056767;28;20073;-82
2023/09/13 07:48:13;;;;;;;15.68;3.92;;;;;;;;;;5069619;28;20098;-82
2023/09/13 07:50:40;;;;;;;9.70;3.40;;;;;;;;;;5063294;28;20040;-82
2023/09/13 07:53:07;;;;;;;12.27;3.63;;;;;;;;;;5056257;28;20432;-82
2023/09/13 07:55:34;;;;;;;7.22;3.85;;;;;;;;;;5067592;28;20084;-83
2023/09/13 07:58:00;;;;;;;15.05;4.50;;;;;;;;;;5053177;28;20056;-80
2023/09/13 08:00:26;;;;;;;8.10;3.90;;;;;;;;;;5044598;28;20041;-81
2023/09/13 08:02:52;;;;;;;10.65;3.90;;;;;;;;;;5055905;28;20498;-81
2023/09/13 08:05:18;;;;;;;11.20;3.38;;;;;;;;;;5062978;28;20128;-81
2023/09/13 08:07:45;;;;;;;8.30;3.22;;;;;;;;;;5064524;28;20045;-81
2023/09/13 08:10:11;;;;;;;9.98;3.50;;;;;;;;;;5071110;28;20048;-80
2023/09/13 08:12:37;;;;;;;11.48;3.85;;;;;;;;;;5056091;28;20045;-81
2023/09/13 08:15:04;;;;;;;9.50;3.53;;;;;;;;;;5044515;28;20048;-81
2023/09/13 08:17:31;;;;;;;6.85;3.67;;;;;;;;;;5059804;28;20047;-81
2023/09/13 08:19:57;;;;;;;8.02;3.60;;;;;;;;;;5045694;28;20098;-81
2023/09/13 08:22:23;;;;;;;7.15;3.67;;;;;;;;;;5056928;28;20504;-80
2023/09/13 08:24:49;;;;;;;10.43;4.05;;;;;;;;;;5040577;28;20443;-81
2023/09/13 08:27:15;;;;;;;7.15;3.22;;;;;;;;;;5051942;28;20443;-81
2023/09/13 08:29:41;;;;;;;8.02;3.05;;;;;;;;;;5052938;28;20059;-80
2023/09/13 08:32:07;;;;;;;10.38;3.53;;;;;;;;;;5057899;28;20064;-80
2023/09/13 08:34:35;;;;;;;7.97;3.78;;;;;;;;;;5047962;28;20063;-80
2023/09/13 08:37:01;;;;;;;8.23;3.33;;;;;;;;;;5057772;28;20114;-80
2023/09/13 08:39:27;;;;;;;8.77;3.58;;;;;;;;;;5055770;28;20051;-80
2023/09/13 08:41:54;;;;;;;9.48;3.30;;;;;;;;;;5054445;28;20041;-81
2023/09/13 08:44:21;;;;;;;6.22;3.50;;;;;;;;;;5053657;28;20037;-81
2023/09/13 08:46:50;;;;;;;6.53;3.60;;;;;;;;;;5054307;28;20049;-81
2023/09/13 08:49:20;;;;;;;7.50;4.10;;;;;;;;;;5062004;28;20044;-79
2023/09/13 08:51:47;;;;;;;6.70;3.47;;;;;;;;;;5072923;28;20476;-79
2023/09/13 08:54:14;;;;;;;8.02;3.55;;;;;;;;;;5045009;28;20045;-79
2023/09/13 08:56:43;;;;;;;5.70;3.40;;;;;;;;;;5051691;28;20116;-79
2023/09/13 08:59:12;;;;;;;6.25;3.95;;;;;;;;;;5057426;28;20075;-78
2023/09/13 09:01:39;;;;;;;5.72;3.70;;;;;;;;;;5057415;28;20045;-80
2023/09/13 09:04:05;;;;;;;6.13;4.20;;;;;;;;;;5056984;28;20049;-80
2023/09/13 09:06:32;;;;;;;6.95;3.22;;;;;;;;;;5056012;28;20041;-80
2023/09/13 09:08:58;;;;;;;6.07;3.10;;;;;;;;;;5058770;28;20490;-80
2023/09/13 09:11:26;;;;;;;5.15;2.90;;;;;;;;;;5046031;28;20049;-80
2023/09/13 09:13:54;;;;;;;8.55;3.47;;;;;;;;;;5057949;28;20060;-79
2023/09/13 09:16:21;;;;;;;9.68;3.45;;;;;;;;;;5055106;28;20355;-80
2023/09/13 09:18:47;;;;;;;8.18;3.30;;;;;;;;;;5054815;28;20056;-80
2023/09/13 09:21:14;;;;;;;5.97;3.25;;;;;;;;;;5053700;28;20068;-80
2023/09/13 09:23:41;;;;;;;8.35;4.03;;;;;;;;;;5063851;28;20049;-80
2023/09/13 09:26:07;;;;;;;7.07;3.88;;;;;;;;;;5059727;28;20043;-80
2023/09/13 09:28:34;;;;;;;7.10;4.25;;;;;;;;;;5055424;28;20079;-80
2023/09/13 09:31:02;;;;;;;8.82;4.22;;;;;;;;;;5066058;28;20059;-80
2023/09/13 09:33:29;;;;;;;7.80;4.03;;;;;;;;;;5065664;28;20495;-80
2023/09/13 09:36:01;;;;;;;6.35;3.72;;;;;;;;;;5059392;28;20094;-80
2023/09/13 09:38:28;;;;;;;6.85;4.15;;;;;;;;;;5058016;28;20047;-79
2023/09/13 09:40:58;;;;;;;10.35;3.92;;;;;;;;;;5053537;28;20045;-80
2023/09/13 09:43:24;;;;;;;5.30;3.22;;;;;;;;;;5053745;28;20509;-79
2023/09/13 09:45:50;;;;;;;6.93;3.10;;;;;;;;;;5055466;28;20513;-80
2023/09/13 09:48:16;;;;;;;6.85;2.75;;;;;;;;;;5060269;28;20053;-80
2023/09/13 09:50:46;;;;;;;5.90;2.90;;;;;;;;;;5074317;28;20036;-80
2023/09/13 09:53:13;;;;;;;5.15;2.90;;;;;;;;;;5060032;28;20477;-80
2023/09/13 09:55:40;;;;;;;7.35;2.92;;;;;;;;;;5065228;28;20051;-80
2023/09/13 09:58:06;;;;;;;7.82;3.08;;;;;;;;;;5072595;28;20040;-80
2023/09/13 10:00:43;;;;;;;6.85;3.30;;;;;;;;;;5052110;28;20048;-77
2023/09/13 10:03:15;;;;;;;8.05;3.05;;;;;;;;;;5049347;28;20510;-80
2023/09/13 10:05:50;;;;;;;6.15;2.72;;;;;;;;;;5074350;28;20044;-80
2023/09/13 10:08:16;;;;;;;5.93;3.00;;;;;;;;;;5049873;28;20059;-81
2023/09/13 10:10:42;;;;;;;6.40;2.90;;;;;;;;;;5059360;28;20047;-80
2023/09/13 10:13:13;;;;;;;8.35;2.90;;;;;;;;;;5044137;28;20052;-80
2023/09/13 10:15:39;;;;;;;7.20;2.72;;;;;;;;;;5055903;28;20080;-81
2023/09/13 10:18:05;;;;;;;6.72;2.78;;;;;;;;;;5053324;28;20057;-80
2023/09/13 10:20:34;;;;;;;6.30;2.70;;;;;;;;;;5049257;28;20049;-80
2023/09/13 10:23:01;;;;;;;5.45;2.75;;;;;;;;;;5046806;28;20045;-80
2023/09/13 10:25:30;;;;;;;10.68;2.70;;;;;;;;;;5052005;28;20045;-80
2023/09/13 10:27:58;;;;;;;6.60;2.70;;;;;;;;;;5052443;28;20033;-80
2023/09/13 10:30:27;;;;;;;7.03;2.25;;;;;;;;;;5054362;28;20368;-80
2023/09/13 10:33:04;;;;;;;4.88;2.42;;;;;;;;;;5066301;28;20419;-80
2023/09/13 10:35:32;;;;;;;7.10;2.78;;;;;;;;;;5070897;28;20060;-80
2023/09/13 10:38:04;;;;;;;5.57;2.40;;;;;;;;;;5054939;28;20143;-80
2023/09/13 10:40:34;;;;;;;6.45;2.45;;;;;;;;;;5063654;28;20106;-80
2023/09/13 10:43:01;;;;;;;6.47;2.78;;;;;;;;;;5052745;28;20532;-80
2023/09/13 10:45:27;;;;;;;6.22;2.95;;;;;;;;;;5055262;28;20049;-80
2023/09/13 10:47:53;;;;;;;4.85;2.33;;;;;;;;;;5060250;28;20048;-80
2023/09/13 10:50:20;;;;;;;6.25;2.45;;;;;;;;;;5054546;28;20450;-80
2023/09/13 10:52:46;;;;;;;5.18;2.55;;;;;;;;;;5055988;28;20102;-80
2023/09/13 10:55:13;;;;;;;6.18;2.80;;;;;;;;;;5072267;28;20404;-80
2023/09/13 10:57:40;;;;;;;5.38;2.75;;;;;;;;;;5054634;28;20703;-80
2023/09/13 11:00:10;;;;;;;5.68;2.47;;;;;;;;;;5058704;28;20049;-80
2023/09/13 11:02:36;;;;;;;8.52;2.80;;;;;;;;;;5053318;28;20041;-81
2023/09/13 11:05:03;;;;;;;6.32;2.88;;;;;;;;;;5048630;28;20470;-80
2023/09/13 11:07:30;;;;;;;8.35;2.95;;;;;;;;;;5057609;28;20560;-81
2023/09/13 11:10:04;;;;;;;9.43;2.95;;;;;;;;;;5054911;28;20041;-80
2023/09/13 11:12:35;;;;;;;8.15;2.88;;;;;;;;;;5058390;28;20041;-80
2023/09/13 11:15:11;;;;;;;5.93;2.58;;;;;;;;;;5056935;28;20525;-80
2023/09/13 11:17:39;;;;;;;5.95;2.60;;;;;;;;;;5059633;28;20048;-80
2023/09/13 11:20:24;;;;;;;7.50;3.10;;;;;;;;;;5060107;28;20048;-80
2023/09/13 11:23:10;;;;;;;7.40;2.88;;;;;;;;;;5059304;28;20053;-80
2023/09/13 11:25:37;;;;;;;5.93;2.40;;;;;;;;;;5056116;28;20076;-80
2023/09/13 11:28:08;;;;;;;8.00;2.78;;;;;;;;;;5072568;28;20041;-79
2023/09/13 11:30:48;;;;;;;5.20;2.40;;;;;;;;;;5051978;28;20057;-79
2023/09/13 11:33:14;;;;;;;4.53;1.98;;;;;;;;;;5072727;28;20138;-81
2023/09/13 11:35:41;;;;;;;3.42;2.30;;;;;;;;;;5077469;28;20053;-80
2023/09/13 11:38:08;;;;;;;5.05;2.00;;;;;;;;;;5073269;28;20106;-79
2023/09/13 11:40:34;;;;;;;7.03;2.47;;;;;;;;;;5060729;28;20088;-78
2023/09/13 11:43:01;;;;;;;4.10;1.70;;;;;;;;;;5050160;28;20126;-79
2023/09/13 11:45:30;;;;;;;5.25;1.83;;;;;;;;;;5041377;28;20083;-79
2023/09/13 11:47:56;;;;;;;3.72;2.10;;;;;;;;;;5051857;28;20041;-79
2023/09/13 11:50:23;;;;;;;4.50;2.10;;;;;;;;;;5050749;28;20107;-79
2023/09/13 11:53:13;;;;;;;5.50;2.38;;;;;;;;;;5054345;28;20041;-79
2023/09/13 11:55:49;;;;;;;6.65;2.70;;;;;;;;;;5042337;28;20053;-79
2023/09/13 11:58:19;;;;;;;5.32;1.88;;;;;;;;;;5039177;28;20120;-79
2023/09/13 12:00:45;;;;;;;4.28;2.00;;;;;;;;;;5043237;28;20045;-79
2023/09/13 12:03:17;;;;;;;9.25;2.47;;;;;;;;;;5060346;28;20493;-79
2023/09/13 12:05:43;;;;;;;6.10;2.13;;;;;;;;;;5053684;28;20084;-79
2023/09/13 12:08:27;;;;;;;6.68;2.28;;;;;;;;;;5053684;28;20128;-78
2023/09/13 12:10:54;;;;;;;5.70;2.65;;;;;;;;;;5053629;28;20052;-78
2023/09/13 12:13:20;;;;;;;7.68;2.67;;;;;;;;;;5073432;28;20048;-78
2023/09/13 12:15:59;;;;;;;5.10;2.53;;;;;;;;;;5060917;28;20081;-78
2023/09/13 12:18:25;;;;;;;7.93;2.15;;;;;;;;;;5059996;28;20048;-78
2023/09/13 12:20:51;;;;;;;6.15;2.55;;;;;;;;;;5059462;28;20490;-78
2023/09/13 12:23:17;;;;;;;7.50;2.20;;;;;;;;;;5063764;28;20040;-78
2023/09/13 12:25:45;;;;;;;10.55;2.50;;;;;;;;;;5054741;28;20445;-79
2023/09/13 12:28:12;;;;;;;7.75;2.35;;;;;;;;;;5050129;28;20041;-78
2023/09/13 12:30:38;;;;;;;7.25;2.40;;;;;;;;;;5051201;28;20124;-80
2023/09/13 12:33:04;;;;;;;7.53;2.30;;;;;;;;;;5077478;28;20066;-80
2023/09/13 12:35:31;;;;;;;8.63;2.50;;;;;;;;;;5077413;28;20423;-80
2023/09/13 12:38:00;;;;;;;6.88;2.40;;;;;;;;;;5067120;28;20508;-78
2023/09/13 12:40:29;;;;;;;6.03;2.40;;;;;;;;;;5066846;28;20410;-77
2023/09/13 12:42:56;;;;;;;10.52;3.60;;;;;;;;;;5065897;28;20052;-77
2023/09/13 12:45:22;;;;;;;8.05;2.70;;;;;;;;;;5051826;28;20124;-78
2023/09/13 12:47:50;;;;;;;5.95;2.60;;;;;;;;;;5053781;28;20124;-79
2023/09/13 12:50:16;;;;;;;8.30;3.08;;;;;;;;;;5059717;28;20113;-79
2023/09/13 12:52:42;;;;;;;9.02;2.70;;;;;;;;;;5058826;28;20080;-80
2023/09/13 12:55:08;;;;;;;9.15;2.72;;;;;;;;;;5071187;28;20047;-80
2023/09/13 12:57:35;;;;;;;7.28;2.95;;;;;;;;;;5067096;28;20139;-81
2023/09/13 13:00:02;;;;;;;10.88;3.58;;;;;;;;;;5063929;28;20044;-81
2023/09/13 13:02:28;;;;;;;6.63;3.10;;;;;;;;;;5073530;28;20060;-81
2023/09/13 13:04:54;;;;;;;9.15;2.85;;;;;;;;;;5063750;28;20072;-81
2023/09/13 13:07:22;;;;;;;8.00;3.22;;;;;;;;;;5056168;28;20118;-81
2023/09/13 13:09:51;;;;;;;6.53;2.80;;;;;;;;;;5056553;28;20101;-81
2023/09/13 13:12:17;;;;;;;10.70;3.25;;;;;;;;;;5067193;28;20482;-80
2023/09/13 13:14:50;;;;;;;8.48;2.95;;;;;;;;;;5057639;28;20047;-81
2023/09/13 13:17:17;;;;;;;7.40;2.40;;;;;;;;;;5057471;28;20503;-81
2023/09/13 13:19:43;;;;;;;6.78;2.38;;;;;;;;;;5065567;28;20081;-81
2023/09/13 13:22:16;;;;;;;6.47;2.60;;;;;;;;;;5040618;28;20198;-78
2023/09/13 13:24:42;;;;;;;5.78;3.00;;;;;;;;;;5049930;28;20045;-81
2023/09/13 13:27:08;;;;;;;5.88;2.50;;;;;;;;;;5055063;28;20049;-82
2023/09/13 13:29:35;;;;;;;7.78;2.78;;;;;;;;;;5055743;28;20060;-82
2023/09/13 13:32:02;;;;;;;6.07;2.40;;;;;;;;;;5056947;28;20541;-82
2023/09/13 13:34:28;;;;;;;8.82;2.70;;;;;;;;;;5064338;28;20056;-81
2023/09/13 13:36:54;;;;;;;6.90;2.30;;;;;;;;;;5055848;28;20044;-80
2023/09/13 13:39:20;;;;;;;10.30;4.45;;;;;;;;;;5058361;28;20048;-81
2023/09/13 13:41:46;;;;;;;43.80;15.90;;;;;;;;;;5073058;28;20048;-80
2023/09/13 13:44:15;;;;;;;33.40;12.70;;;;;;;;;;5056830;28;20037;-83
2023/09/13 13:46:41;;;;;;;13.85;5.00;;;;;;;;;;5045941;28;20419;-80
2023/09/13 13:49:07;;;;;;;9.05;4.05;;;;;;;;;;5057663;28;20045;-83
2023/09/13 13:51:33;;;;;;;6.78;2.53;;;;;;;;;;5058613;28;20092;-81
2023/09/13 13:54:00;;;;;;;9.48;2.55;;;;;;;;;;5051569;28;20120;-81
2023/09/13 13:56:26;;;;;;;9.80;2.88;;;;;;;;;;5077444;28;20040;-81
2023/09/13 13:58:53;;;;;;;17.38;5.97;;;;;;;;;;5064391;28;20091;-81
2023/09/13 14:01:19;;;;;;;16.40;5.68;;;;;;;;;;5072150;28;20044;-80
2023/09/13 14:03:45;;;;;;;13.40;5.65;;;;;;;;;;5066112;28;20612;-79
2023/09/13 14:06:11;;;;;;;17.17;8.00;;;;;;;;;;5080188;28;20406;-81
2023/09/13 14:08:37;;;;;;;8.13;2.90;;;;;;;;;;5055527;28;20368;-80
2023/09/13 14:11:03;;;;;;;7.85;3.28;;;;;;;;;;5070477;28;20041;-80
2023/09/13 14:13:30;;;;;;;7.80;2.72;;;;;;;;;;5074892;28;20049;-80
2023/09/13 14:15:57;;;;;;;6.65;2.55;;;;;;;;;;5069311;28;20098;-80
2023/09/13 14:18:23;;;;;;;7.00;2.67;;;;;;;;;;5068388;28;20049;-80
2023/09/13 14:20:49;;;;;;;7.85;2.55;;;;;;;;;;5056553;28;20140;-81
2023/09/13 14:23:15;;;;;;;8.70;3.05;;;;;;;;;;5042969;28;20068;-80
2023/09/13 14:25:42;;;;;;;6.50;2.50;;;;;;;;;;5059949;28;20132;-80
2023/09/13 14:28:12;;;;;;;6.82;2.50;;;;;;;;;;5075994;28;20457;-80
2023/09/13 14:30:38;;;;;;;8.57;2.22;;;;;;;;;;5088963;28;20039;-81
2023/09/13 14:33:04;;;;;;;7.05;2.78;;;;;;;;;;5084443;28;20055;-80
2023/09/13 14:35:30;;;;;;;6.90;2.70;;;;;;;;;;5094759;28;20505;-81
2023/09/13 14:37:56;;;;;;;6.18;2.40;;;;;;;;;;5075506;28;20052;-81
2023/09/13 14:40:23;;;;;;;4.82;2.60;;;;;;;;;;5090327;28;20068;-80
2023/09/13 14:42:50;;;;;;;8.82;2.40;;;;;;;;;;5079412;28;20063;-81
2023/09/13 14:45:16;;;;;;;7.10;2.50;;;;;;;;;;5076958;28;20047;-80
2023/09/13 14:47:42;;;;;;;5.55;2.20;;;;;;;;;;5080620;28;20040;-81
2023/09/13 14:50:08;;;;;;;7.68;2.85;;;;;;;;;;5077181;28;20151;-81
2023/09/13 14:52:37;;;;;;;7.90;2.65;;;;;;;;;;5089373;28;20052;-80
2023/09/13 14:55:07;;;;;;;6.55;2.53;;;;;;;;;;5070298;28;20058;-81
2023/09/13 14:57:34;;;;;;;4.82;2.00;;;;;;;;;;5077094;28;20494;-80
2023/09/13 15:00:00;;;;;;;5.45;2.42;;;;;;;;;;5084682;28;20303;-81
2023/09/13 15:02:26;;;;;;;5.50;2.40;;;;;;;;;;5079709;28;20041;-80
2023/09/13 15:04:52;;;;;;;7.55;2.45;;;;;;;;;;5078802;28;20045;-81
2023/09/13 15:07:19;;;;;;;6.78;2.75;;;;;;;;;;5090845;28;20127;-80
2023/09/13 15:09:45;;;;;;;9.30;2.40;;;;;;;;;;5081285;28;20040;-81
2023/09/13 15:12:12;;;;;;;5.35;2.65;;;;;;;;;;5071407;28;20049;-80
2023/09/13 15:14:38;;;;;;;7.70;2.65;;;;;;;;;;5075637;28;20048;-80
2023/09/13 15:17:04;;;;;;;9.90;2.75;;;;;;;;;;5074420;28;20127;-80
2023/09/13 15:19:30;;;;;;;7.57;2.65;;;;;;;;;;5085739;28;20421;-80
2023/09/13 15:21:57;;;;;;;7.25;2.42;;;;;;;;;;5095793;28;20086;-80
2023/09/13 15:24:23;;;;;;;7.00;2.70;;;;;;;;;;5066826;28;20071;-81
2023/09/13 15:26:49;;;;;;;7.32;2.63;;;;;;;;;;5066856;28;20091;-80
2023/09/13 15:29:15;;;;;;;6.90;2.50;;;;;;;;;;5068605;28;20071;-80
2023/09/13 15:31:41;;;;;;;8.55;2.65;;;;;;;;;;5086689;28;20498;-80
2023/09/13 15:34:09;;;;;;;9.43;3.03;;;;;;;;;;5068363;28;20045;-80
2023/09/13 15:36:36;;;;;;;6.18;2.83;;;;;;;;;;5072465;28;20078;-80
2023/09/13 15:39:03;;;;;;;7.90;2.65;;;;;;;;;;5093847;28;20058;-80
2023/09/13 15:41:29;;;;;;;8.32;2.50;;;;;;;;;;5083032;28;20048;-80
2023/09/13 15:43:55;;;;;;;6.53;2.42;;;;;;;;;;5089809;28;20052;-80
2023/09/13 15:46:21;;;;;;;7.13;2.75;;;;;;;;;;5075620;28;20048;-81
2023/09/13 15:48:47;;;;;;;8.63;2.58;;;;;;;;;;5088581;28;20051;-81
2023/09/13 15:51:14;;;;;;;7.40;2.47;;;;;;;;;;5076791;28;20047;-80
2023/09/13 15:53:40;;;;;;;9.43;2.60;;;;;;;;;;5071559;28;20053;-80
2023/09/13 15:56:06;;;;;;;6.55;2.30;;;;;;;;;;5078286;28;20041;-80
2023/09/13 15:58:32;;;;;;;6.63;2.75;;;;;;;;;;5077521;28;20055;-80
2023/09/13 16:00:58;;;;;;;8.70;2.63;;;;;;;;;;5088826;28;20097;-80
2023/09/13 16:03:26;;;;;;;6.70;2.30;;;;;;;;;;5079569;28;20036;-80
2023/09/13 16:05:52;;;;;;;7.30;3.08;;;;;;;;;;5080103;28;20072;-77
2023/09/13 16:08:19;;;;;;;7.57;2.95;;;;;;;;;;5093682;28;20093;-77
2023/09/13 16:10:45;;;;;;;4.57;2.38;;;;;;;;;;5073689;28;20107;-76
2023/09/13 16:13:11;;;;;;;6.97;2.75;;;;;;;;;;5071854;28;20047;-77
2023/09/13 16:15:37;;;;;;;5.65;2.50;;;;;;;;;;5069667;28;20072;-76
2023/09/13 16:18:04;;;;;;;6.97;2.88;;;;;;;;;;5071224;28;20087;-76
2023/09/13 16:20:30;;;;;;;9.00;2.50;;;;;;;;;;5080352;28;20490;-76
2023/09/13 16:22:57;;;;;;;7.57;2.50;;;;;;;;;;5082718;28;20036;-76
2023/09/13 16:25:24;;;;;;;5.43;2.20;;;;;;;;;;5080038;28;20128;-76
2023/09/13 16:27:50;;;;;;;6.30;2.60;;;;;;;;;;5084143;28;20134;-76
2023/09/13 16:30:16;;;;;;;6.57;2.55;;;;;;;;;;5072173;28;20402;-76
2023/09/13 16:32:48;;;;;;;5.90;2.33;;;;;;;;;;5085990;28;20044;-76
2023/09/13 16:35:17;;;;;;;5.03;2.30;;;;;;;;;;5073987;28;20105;-77
2023/09/13 16:37:43;;;;;;;6.93;2.53;;;;;;;;;;5073063;28;20052;-76
2023/09/13 16:40:09;;;;;;;7.28;2.50;;;;;;;;;;5071293;28;20040;-77
2023/09/13 16:42:38;;;;;;;8.55;2.70;;;;;;;;;;5091627;28;20044;-77
2023/09/13 16:45:04;;;;;;;8.73;2.60;;;;;;;;;;5082444;28;20083;-77
2023/09/13 16:47:31;;;;;;;7.43;2.45;;;;;;;;;;5069107;28;20058;-77
2023/09/13 16:49:57;;;;;;;7.80;2.60;;;;;;;;;;5079130;28;20505;-77
2023/09/13 16:52:23;;;;;;;5.38;2.30;;;;;;;;;;5089852;28;20052;-77